sensor_id;sensor_type;location;lat;lon;timestamp;P1;durP1;ratioP1;P2;durP2;ratioP2
14048;SDS011;7099;53.922;10.728;2023-09-19T00:01:36;3.33;;;1.10;;
14048;SDS011;7099;53.922;10.728;2023-09-19T00:05:42;7.33;;;1.60;;
14048;SDS011;7099;53.922;10.728;2023-09-19T00:09:49;1.20;;;1.10;;
14048;SDS011;7099;53.922;10.728;2023-09-19T00:13:55;3.20;;;1.20;;
14048;SDS011;7099;53.922;10.728;2023-09-19T00:18:01;1.73;;;1.23;;
14048;SDS011;7099;53.922;10.728;2023-09-19T00:22:10;2.07;;;1.40;;
14048;SDS011;7099;53.922;10.728;2023-09-19T00:26:18;4.40;;;1.60;;
14048;SDS011;7099;53.922;10.728;2023-09-19T00:30:23;3.38;;;1.70;;
14048;SDS011;7099;53.922;10.728;2023-09-19T00:34:29;4.20;;;1.70;;
14048;SDS011;7099;53.922;10.728;2023-09-19T00:38:39;4.60;;;1.70;;
14048;SDS011;7099;53.922;10.728;2023-09-19T00:42:45;4.13;;;1.90;;
14048;SDS011;7099;53.922;10.728;2023-09-19T00:46:52;4.25;;;1.90;;
14048;SDS011;7099;53.922;10.728;2023-09-19T00:50:59;4.60;;;2.10;;
14048;SDS011;7099;53.922;10.728;2023-09-19T00:55:10;5.43;;;1.83;;
14048;SDS011;7099;53.922;10.728;2023-09-19T00:59:19;4.00;;;1.70;;
14048;SDS011;7099;53.922;10.728;2023-09-19T01:03:27;3.13;;;1.80;;
14048;SDS011;7099;53.922;10.728;2023-09-19T01:07:33;5.20;;;2.00;;
14048;SDS011;7099;53.922;10.728;2023-09-19T01:11:40;4.50;;;2.10;;
14048;SDS011;7099;53.922;10.728;2023-09-19T01:15:54;4.80;;;2.10;;
14048;SDS011;7099;53.922;10.728;2023-09-19T01:29:12;4.87;;;1.90;;
14048;SDS011;7099;53.922;10.728;2023-09-19T01:33:55;5.43;;;2.00;;
14048;SDS011;7099;53.922;10.728;2023-09-19T01:38:05;4.30;;;2.10;;
14048;SDS011;7099;53.922;10.728;2023-09-19T01:42:28;7.80;;;2.60;;
14048;SDS011;7099;53.922;10.728;2023-09-19T01:46:49;4.80;;;2.50;;
14048;SDS011;7099;53.922;10.728;2023-09-19T01:50:56;6.43;;;2.30;;
14048;SDS011;7099;53.922;10.728;2023-09-19T01:55:07;5.90;;;2.30;;
14048;SDS011;7099;53.922;10.728;2023-09-19T01:59:16;5.55;;;2.10;;
14048;SDS011;7099;53.922;10.728;2023-09-19T02:03:33;5.28;;;2.50;;
14048;SDS011;7099;53.922;10.728;2023-09-19T02:07:40;5.97;;;2.38;;
14048;SDS011;7099;53.922;10.728;2023-09-19T02:11:45;6.38;;;2.50;;
14048;SDS011;7099;53.922;10.728;2023-09-19T02:15:51;5.30;;;2.20;;
14048;SDS011;7099;53.922;10.728;2023-09-19T02:19:56;6.95;;;2.30;;
14048;SDS011;7099;53.922;10.728;2023-09-19T02:24:03;5.53;;;2.30;;
14048;SDS011;7099;53.922;10.728;2023-09-19T02:28:09;7.22;;;2.60;;
14048;SDS011;7099;53.922;10.728;2023-09-19T02:32:16;5.45;;;2.60;;
14048;SDS011;7099;53.922;10.728;2023-09-19T02:36:23;7.22;;;2.50;;
14048;SDS011;7099;53.922;10.728;2023-09-19T02:40:28;8.20;;;3.00;;
14048;SDS011;7099;53.922;10.728;2023-09-19T02:44:34;8.32;;;2.65;;
14048;SDS011;7099;53.922;10.728;2023-09-19T02:48:40;7.60;;;2.70;;
14048;SDS011;7099;53.922;10.728;2023-09-19T02:52:47;6.78;;;2.50;;
14048;SDS011;7099;53.922;10.728;2023-09-19T02:56:56;6.40;;;2.63;;
14048;SDS011;7099;53.922;10.728;2023-09-19T03:01:10;7.05;;;2.50;;
14048;SDS011;7099;53.922;10.728;2023-09-19T03:05:19;3.70;;;2.20;;
14048;SDS011;7099;53.922;10.728;2023-09-19T03:09:28;4.72;;;2.60;;
14048;SDS011;7099;53.922;10.728;2023-09-19T03:13:33;5.00;;;2.00;;
14048;SDS011;7099;53.922;10.728;2023-09-19T03:17:44;3.97;;;2.10;;
14048;SDS011;7099;53.922;10.728;2023-09-19T03:21:52;7.03;;;2.50;;
14048;SDS011;7099;53.922;10.728;2023-09-19T03:25:58;6.33;;;2.30;;
14048;SDS011;7099;53.922;10.728;2023-09-19T03:30:04;8.05;;;2.25;;
14048;SDS011;7099;53.922;10.728;2023-09-19T03:34:13;4.95;;;2.25;;
14048;SDS011;7099;53.922;10.728;2023-09-19T03:38:19;6.70;;;2.30;;
14048;SDS011;7099;53.922;10.728;2023-09-19T03:42:26;5.90;;;1.53;;
14048;SDS011;7099;53.922;10.728;2023-09-19T03:46:32;5.78;;;2.20;;
14048;SDS011;7099;53.922;10.728;2023-09-19T03:50:37;7.83;;;2.20;;
14048;SDS011;7099;53.922;10.728;2023-09-19T03:54:43;7.80;;;2.60;;
14048;SDS011;7099;53.922;10.728;2023-09-19T03:58:49;8.15;;;2.60;;
14048;SDS011;7099;53.922;10.728;2023-09-19T04:02:55;4.80;;;2.30;;
14048;SDS011;7099;53.922;10.728;2023-09-19T04:07:01;6.60;;;2.20;;
14048;SDS011;7099;53.922;10.728;2023-09-19T04:11:07;6.65;;;2.00;;
14048;SDS011;7099;53.922;10.728;2023-09-19T04:15:13;6.55;;;2.20;;
14048;SDS011;7099;53.922;10.728;2023-09-19T04:19:18;6.70;;;2.00;;
14048;SDS011;7099;53.922;10.728;2023-09-19T04:23:27;7.05;;;2.10;;
14048;SDS011;7099;53.922;10.728;2023-09-19T04:35:44;4.93;;;2.00;;
14048;SDS011;7099;53.922;10.728;2023-09-19T04:39:54;6.37;;;1.77;;
14048;SDS011;7099;53.922;10.728;2023-09-19T04:44:00;9.97;;;2.03;;
14048;SDS011;7099;53.922;10.728;2023-09-19T04:48:05;9.73;;;2.57;;
14048;SDS011;7099;53.922;10.728;2023-09-19T04:52:11;6.07;;;2.10;;
14048;SDS011;7099;53.922;10.728;2023-09-19T04:56:20;4.30;;;2.03;;
14048;SDS011;7099;53.922;10.728;2023-09-19T05:00:26;5.10;;;1.77;;
14048;SDS011;7099;53.922;10.728;2023-09-19T05:04:35;6.57;;;1.70;;
14048;SDS011;7099;53.922;10.728;2023-09-19T05:08:42;5.07;;;2.10;;
14048;SDS011;7099;53.922;10.728;2023-09-19T05:12:47;6.60;;;2.10;;
14048;SDS011;7099;53.922;10.728;2023-09-19T05:16:56;5.33;;;1.80;;
14048;SDS011;7099;53.922;10.728;2023-09-19T05:21:02;6.77;;;1.80;;
14048;SDS011;7099;53.922;10.728;2023-09-19T05:25:11;7.00;;;1.57;;
14048;SDS011;7099;53.922;10.728;2023-09-19T05:29:21;2.73;;;1.77;;
14048;SDS011;7099;53.922;10.728;2023-09-19T05:33:26;13.87;;;2.30;;
14048;SDS011;7099;53.922;10.728;2023-09-19T05:37:32;6.33;;;2.03;;
14048;SDS011;7099;53.922;10.728;2023-09-19T05:45:44;8.65;;;2.13;;
14048;SDS011;7099;53.922;10.728;2023-09-19T05:49:50;10.90;;;2.47;;
14048;SDS011;7099;53.922;10.728;2023-09-19T05:53:57;6.75;;;2.38;;
14048;SDS011;7099;53.922;10.728;2023-09-19T14:28:26;5.70;;;1.97;;
14048;SDS011;7099;53.922;10.728;2023-09-19T14:32:33;10.63;;;2.40;;
14048;SDS011;7099;53.922;10.728;2023-09-19T14:36:40;9.80;;;2.70;;
14048;SDS011;7099;53.922;10.728;2023-09-19T14:40:45;8.53;;;2.57;;
14048;SDS011;7099;53.922;10.728;2023-09-19T14:44:50;8.30;;;1.87;;
14048;SDS011;7099;53.922;10.728;2023-09-19T14:48:56;6.43;;;2.20;;
14048;SDS011;7099;53.922;10.728;2023-09-19T14:53:06;8.33;;;2.30;;
14048;SDS011;7099;53.922;10.728;2023-09-19T14:57:15;10.00;;;1.87;;
14048;SDS011;7099;53.922;10.728;2023-09-19T15:01:21;6.13;;;2.07;;
14048;SDS011;7099;53.922;10.728;2023-09-19T15:05:27;5.03;;;2.20;;
14048;SDS011;7099;53.922;10.728;2023-09-19T15:09:35;7.37;;;1.93;;
14048;SDS011;7099;53.922;10.728;2023-09-19T15:13:40;22.23;;;2.43;;
14048;SDS011;7099;53.922;10.728;2023-09-19T15:17:46;10.93;;;2.20;;
14048;SDS011;7099;53.922;10.728;2023-09-19T15:21:52;7.70;;;2.30;;
14048;SDS011;7099;53.922;10.728;2023-09-19T15:25:58;10.83;;;2.90;;
14048;SDS011;7099;53.922;10.728;2023-09-19T15:30:04;8.30;;;2.07;;
14048;SDS011;7099;53.922;10.728;2023-09-19T15:34:10;6.30;;;1.97;;
14048;SDS011;7099;53.922;10.728;2023-09-19T15:38:19;6.07;;;2.13;;
14048;SDS011;7099;53.922;10.728;2023-09-19T15:42:24;14.73;;;3.40;;
14048;SDS011;7099;53.922;10.728;2023-09-19T15:46:33;10.03;;;2.10;;
14048;SDS011;7099;53.922;10.728;2023-09-19T15:50:40;11.77;;;2.10;;
14048;SDS011;7099;53.922;10.728;2023-09-19T15:54:47;7.70;;;2.30;;
14048;SDS011;7099;53.922;10.728;2023-09-19T15:58:54;6.37;;;2.30;;
14048;SDS011;7099;53.922;10.728;2023-09-19T16:03:00;12.57;;;2.30;;
14048;SDS011;7099;53.922;10.728;2023-09-19T16:07:07;7.57;;;2.40;;
14048;SDS011;7099;53.922;10.728;2023-09-19T16:11:13;5.00;;;2.00;;
14048;SDS011;7099;53.922;10.728;2023-09-19T16:15:20;7.53;;;2.43;;
14048;SDS011;7099;53.922;10.728;2023-09-19T16:19:25;9.97;;;2.17;;
14048;SDS011;7099;53.922;10.728;2023-09-19T16:23:31;11.53;;;3.80;;
14048;SDS011;7099;53.922;10.728;2023-09-19T16:27:37;11.53;;;2.67;;
14048;SDS011;7099;53.922;10.728;2023-09-19T16:31:42;8.80;;;2.50;;
14048;SDS011;7099;53.922;10.728;2023-09-19T16:35:48;7.30;;;2.10;;
14048;SDS011;7099;53.922;10.728;2023-09-19T16:39:53;13.60;;;2.63;;
14048;SDS011;7099;53.922;10.728;2023-09-19T16:43:59;11.20;;;2.17;;
14048;SDS011;7099;53.922;10.728;2023-09-19T16:48:04;10.47;;;2.40;;
14048;SDS011;7099;53.922;10.728;2023-09-19T16:52:10;8.20;;;2.27;;
14048;SDS011;7099;53.922;10.728;2023-09-19T16:56:16;8.63;;;2.60;;
14048;SDS011;7099;53.922;10.728;2023-09-19T17:00:24;6.40;;;2.80;;
14048;SDS011;7099;53.922;10.728;2023-09-19T17:04:30;10.13;;;2.63;;
14048;SDS011;7099;53.922;10.728;2023-09-19T17:08:36;10.47;;;2.30;;
14048;SDS011;7099;53.922;10.728;2023-09-19T17:12:44;7.90;;;2.20;;
14048;SDS011;7099;53.922;10.728;2023-09-19T17:16:49;13.83;;;2.63;;
14048;SDS011;7099;53.922;10.728;2023-09-19T17:20:55;6.90;;;2.43;;
14048;SDS011;7099;53.922;10.728;2023-09-19T17:25:00;10.23;;;2.33;;
14048;SDS011;7099;53.922;10.728;2023-09-19T17:29:06;6.30;;;2.20;;
14048;SDS011;7099;53.922;10.728;2023-09-19T17:33:11;6.60;;;2.77;;
14048;SDS011;7099;53.922;10.728;2023-09-19T17:37:17;5.83;;;2.10;;
14048;SDS011;7099;53.922;10.728;2023-09-19T17:41:23;7.87;;;2.57;;
14048;SDS011;7099;53.922;10.728;2023-09-19T17:45:30;8.00;;;1.93;;
14048;SDS011;7099;53.922;10.728;2023-09-19T17:49:36;3.90;;;2.03;;
14048;SDS011;7099;53.922;10.728;2023-09-19T17:53:41;8.20;;;2.63;;
14048;SDS011;7099;53.922;10.728;2023-09-19T17:57:47;9.47;;;2.23;;
14048;SDS011;7099;53.922;10.728;2023-09-19T18:01:57;11.63;;;1.80;;
14048;SDS011;7099;53.922;10.728;2023-09-19T18:06:03;12.57;;;2.60;;
14048;SDS011;7099;53.922;10.728;2023-09-19T18:10:08;6.90;;;1.90;;
14048;SDS011;7099;53.922;10.728;2023-09-19T18:14:14;7.93;;;2.47;;
14048;SDS011;7099;53.922;10.728;2023-09-19T18:18:21;5.80;;;2.50;;
14048;SDS011;7099;53.922;10.728;2023-09-19T18:22:29;6.40;;;2.17;;
14048;SDS011;7099;53.922;10.728;2023-09-19T18:26:38;7.20;;;1.97;;
14048;SDS011;7099;53.922;10.728;2023-09-19T18:30:43;6.47;;;2.30;;
14048;SDS011;7099;53.922;10.728;2023-09-19T18:34:49;4.03;;;1.67;;
14048;SDS011;7099;53.922;10.728;2023-09-19T18:38:55;5.47;;;1.90;;
14048;SDS011;7099;53.922;10.728;2023-09-19T18:43:01;9.83;;;2.40;;
14048;SDS011;7099;53.922;10.728;2023-09-19T18:47:07;9.77;;;1.97;;
14048;SDS011;7099;53.922;10.728;2023-09-19T18:51:14;10.00;;;2.10;;
14048;SDS011;7099;53.922;10.728;2023-09-19T18:55:22;6.40;;;1.60;;
14048;SDS011;7099;53.922;10.728;2023-09-19T18:59:28;8.37;;;2.00;;
14048;SDS011;7099;53.922;10.728;2023-09-19T19:03:34;4.03;;;1.60;;
14048;SDS011;7099;53.922;10.728;2023-09-19T19:07:40;9.90;;;2.03;;
14048;SDS011;7099;53.922;10.728;2023-09-19T19:11:46;7.37;;;1.83;;
14048;SDS011;7099;53.922;10.728;2023-09-19T19:15:51;5.23;;;1.70;;
14048;SDS011;7099;53.922;10.728;2023-09-19T19:19:58;9.13;;;1.83;;
14048;SDS011;7099;53.922;10.728;2023-09-19T19:24:04;7.60;;;2.00;;
14048;SDS011;7099;53.922;10.728;2023-09-19T19:28:10;4.27;;;1.53;;
14048;SDS011;7099;53.922;10.728;2023-09-19T19:32:16;4.30;;;1.67;;
14048;SDS011;7099;53.922;10.728;2023-09-19T19:36:21;2.97;;;1.53;;
14048;SDS011;7099;53.922;10.728;2023-09-19T19:40:27;7.03;;;1.40;;
14048;SDS011;7099;53.922;10.728;2023-09-19T19:44:33;7.10;;;1.40;;
14048;SDS011;7099;53.922;10.728;2023-09-19T19:48:39;4.60;;;1.73;;
14048;SDS011;7099;53.922;10.728;2023-09-19T19:52:44;7.37;;;1.73;;
14048;SDS011;7099;53.922;10.728;2023-09-19T19:56:58;7.73;;;1.70;;
14048;SDS011;7099;53.922;10.728;2023-09-19T20:01:03;7.27;;;1.83;;
14048;SDS011;7099;53.922;10.728;2023-09-19T20:05:11;5.53;;;1.60;;
14048;SDS011;7099;53.922;10.728;2023-09-19T20:09:17;4.80;;;1.70;;
14048;SDS011;7099;53.922;10.728;2023-09-19T20:13:24;6.60;;;2.97;;
14048;SDS011;7099;53.922;10.728;2023-09-19T20:17:30;3.90;;;1.40;;
14048;SDS011;7099;53.922;10.728;2023-09-19T20:21:36;3.00;;;1.13;;
14048;SDS011;7099;53.922;10.728;2023-09-19T20:25:45;3.90;;;1.50;;
14048;SDS011;7099;53.922;10.728;2023-09-19T20:29:52;7.57;;;1.67;;
14048;SDS011;7099;53.922;10.728;2023-09-19T20:33:58;12.73;;;1.73;;
14048;SDS011;7099;53.922;10.728;2023-09-19T20:38:04;4.80;;;1.53;;
14048;SDS011;7099;53.922;10.728;2023-09-19T20:42:11;6.47;;;1.30;;
14048;SDS011;7099;53.922;10.728;2023-09-19T20:46:16;8.63;;;1.70;;
14048;SDS011;7099;53.922;10.728;2023-09-19T20:50:22;6.60;;;1.73;;
14048;SDS011;7099;53.922;10.728;2023-09-19T20:54:28;9.57;;;1.93;;
14048;SDS011;7099;53.922;10.728;2023-09-19T20:58:36;6.60;;;1.40;;
14048;SDS011;7099;53.922;10.728;2023-09-19T21:02:43;4.90;;;1.30;;
14048;SDS011;7099;53.922;10.728;2023-09-19T21:06:50;5.35;;;1.50;;
14048;SDS011;7099;53.922;10.728;2023-09-19T21:11:09;4.70;;;1.40;;
14048;SDS011;7099;53.922;10.728;2023-09-19T21:15:23;4.17;;;1.67;;
14048;SDS011;7099;53.922;10.728;2023-09-19T21:19:29;2.43;;;1.53;;
14048;SDS011;7099;53.922;10.728;2023-09-19T21:23:35;6.10;;;1.50;;
14048;SDS011;7099;53.922;10.728;2023-09-19T21:27:42;5.23;;;1.33;;
14048;SDS011;7099;53.922;10.728;2023-09-19T21:31:49;9.17;;;1.73;;
14048;SDS011;7099;53.922;10.728;2023-09-19T21:35:55;3.60;;;1.50;;
14048;SDS011;7099;53.922;10.728;2023-09-19T21:40:01;4.80;;;1.70;;
14048;SDS011;7099;53.922;10.728;2023-09-19T21:44:09;5.60;;;1.40;;
14048;SDS011;7099;53.922;10.728;2023-09-19T21:48:15;2.97;;;1.53;;
14048;SDS011;7099;53.922;10.728;2023-09-19T21:52:22;10.43;;;1.37;;
14048;SDS011;7099;53.922;10.728;2023-09-19T21:56:27;4.23;;;1.60;;
14048;SDS011;7099;53.922;10.728;2023-09-19T22:00:33;6.97;;;1.87;;
14048;SDS011;7099;53.922;10.728;2023-09-19T22:04:50;8.87;;;1.50;;
14048;SDS011;7099;53.922;10.728;2023-09-19T22:08:55;6.53;;;1.50;;
14048;SDS011;7099;53.922;10.728;2023-09-19T22:13:01;3.50;;;1.20;;
14048;SDS011;7099;53.922;10.728;2023-09-19T22:17:07;3.60;;;1.20;;
14048;SDS011;7099;53.922;10.728;2023-09-19T22:21:14;3.20;;;1.40;;
14048;SDS011;7099;53.922;10.728;2023-09-19T22:25:38;12.65;;;1.60;;
14048;SDS011;7099;53.922;10.728;2023-09-19T22:29:43;5.40;;;1.30;;
14048;SDS011;7099;53.922;10.728;2023-09-19T22:33:50;4.95;;;1.67;;
14048;SDS011;7099;53.922;10.728;2023-09-19T22:37:57;3.55;;;1.52;;
14048;SDS011;7099;53.922;10.728;2023-09-19T22:42:18;4.65;;;1.50;;
14048;SDS011;7099;53.922;10.728;2023-09-19T22:46:28;4.85;;;1.58;;
14048;SDS011;7099;53.922;10.728;2023-09-19T22:50:33;4.83;;;1.80;;
14048;SDS011;7099;53.922;10.728;2023-09-19T22:58:55;4.17;;;1.53;;
14048;SDS011;7099;53.922;10.728;2023-09-19T23:03:01;4.80;;;1.50;;
14048;SDS011;7099;53.922;10.728;2023-09-19T23:07:10;4.50;;;1.67;;
14048;SDS011;7099;53.922;10.728;2023-09-19T23:11:16;5.55;;;1.75;;
14048;SDS011;7099;53.922;10.728;2023-09-19T23:15:27;3.33;;;1.50;;
14048;SDS011;7099;53.922;10.728;2023-09-19T23:19:32;5.22;;;1.45;;
14048;SDS011;7099;53.922;10.728;2023-09-19T23:27:46;5.27;;;1.60;;
14048;SDS011;7099;53.922;10.728;2023-09-19T23:40:06;6.15;;;2.00;;
14048;SDS011;7099;53.922;10.728;2023-09-19T23:48:20;5.80;;;1.70;;
14048;SDS011;7099;53.922;10.728;2023-09-19T23:52:29;4.93;;;1.77;;
14048;SDS011;7099;53.922;10.728;2023-09-19T23:56:34;4.25;;;1.70;;
